createdAt,value
2023-04-15T00:01:37.355Z,3.35
2023-04-15T00:04:04.819Z,2.65
2023-04-15T00:06:31.902Z,3.03
2023-04-15T00:08:59.357Z,3.55
2023-04-15T00:11:26.159Z,3.95
2023-04-15T00:13:54.225Z,2.95
2023-04-15T00:16:22.743Z,2.92
2023-04-15T00:18:49.943Z,3.20
2023-04-15T00:21:18.095Z,3.00
2023-04-15T00:23:45.244Z,2.85
2023-04-15T00:26:12.716Z,2.58
2023-04-15T00:28:39.358Z,4.00
2023-04-15T00:31:06.040Z,2.63
2023-04-15T00:33:32.807Z,2.80
2023-04-15T00:36:00.796Z,3.72
2023-04-15T00:38:28.141Z,2.88
2023-04-15T00:40:55.341Z,2.63
2023-04-15T00:43:22.685Z,2.78
2023-04-15T00:45:52.234Z,3.65
2023-04-15T00:48:19.122Z,3.72
2023-04-15T00:50:45.728Z,3.15
2023-04-15T00:53:12.654Z,3.28
2023-04-15T00:55:40.141Z,3.30
2023-04-15T00:58:07.198Z,2.78
2023-04-15T01:00:36.056Z,2.80
2023-04-15T01:03:03.308Z,3.83
2023-04-15T01:05:31.312Z,3.60
2023-04-15T01:07:58.653Z,3.08
2023-04-15T01:10:25.345Z,3.40
2023-04-15T01:12:52.525Z,3.03
2023-04-15T01:15:20.421Z,3.03
2023-04-15T01:17:48.127Z,3.38
2023-04-15T01:20:16.736Z,3.25
2023-04-15T01:22:43.736Z,3.58
2023-04-15T01:25:13.169Z,3.88
2023-04-15T01:27:42.286Z,3.08
2023-04-15T01:30:10.655Z,3.15
2023-04-15T01:32:38.108Z,3.38
2023-04-15T01:35:05.129Z,3.50
2023-04-15T01:37:34.260Z,3.15
2023-04-15T01:40:00.911Z,3.03
2023-04-15T01:42:29.008Z,3.30
2023-04-15T01:44:55.861Z,3.40
2023-04-15T01:47:23.730Z,2.88
2023-04-15T01:49:50.384Z,3.03
2023-04-15T01:52:17.004Z,3.17
2023-04-15T01:54:43.660Z,3.42
2023-04-15T01:57:10.360Z,3.30
2023-04-15T01:59:38.626Z,3.67
2023-04-15T02:02:05.522Z,3.40
2023-04-15T02:04:32.690Z,3.15
2023-04-15T02:06:59.928Z,3.20
2023-04-15T02:09:26.662Z,3.67
2023-04-15T02:11:54.250Z,3.80
2023-04-15T02:14:22.240Z,3.63
2023-04-15T02:16:50.020Z,3.13
2023-04-15T02:19:17.844Z,3.00
2023-04-15T02:21:45.926Z,2.72
2023-04-15T02:24:12.575Z,3.42
2023-04-15T02:26:39.244Z,6.28
2023-04-15T02:29:05.900Z,3.70
2023-04-15T02:31:37.007Z,2.65
2023-04-15T02:34:04.691Z,3.15
2023-04-15T02:36:32.067Z,3.05
2023-04-15T02:38:58.895Z,5.57
2023-04-15T02:41:27.809Z,2.80
2023-04-15T02:43:54.884Z,1.17
2023-04-15T02:46:22.971Z,2.58
2023-04-15T02:48:50.780Z,3.80
2023-04-15T02:51:20.041Z,3.78
2023-04-15T02:53:47.701Z,3.00
2023-04-15T02:56:15.929Z,3.40
2023-04-15T02:58:44.756Z,2.20
2023-04-15T03:01:11.571Z,3.50
2023-04-15T03:03:38.367Z,2.67
2023-04-15T03:06:06.185Z,2.90
2023-04-15T03:08:33.245Z,2.67
2023-04-15T03:11:00.946Z,3.55
2023-04-15T03:13:27.655Z,2.75
2023-04-15T03:15:54.403Z,3.17
2023-04-15T03:18:22.981Z,2.95
2023-04-15T03:20:49.566Z,2.15
2023-04-15T03:23:17.766Z,3.30
2023-04-15T03:25:45.251Z,2.17
2023-04-15T03:28:12.409Z,2.33
2023-04-15T03:30:39.034Z,2.03
2023-04-15T03:33:05.650Z,3.55
2023-04-15T03:35:33.713Z,2.70
2023-04-15T03:38:00.326Z,2.92
2023-04-15T03:40:27.105Z,3.17
2023-04-15T03:42:55.189Z,3.65
2023-04-15T03:45:21.795Z,2.85
2023-04-15T03:47:49.821Z,2.35
2023-04-15T03:50:16.749Z,3.67
2023-04-15T03:52:45.718Z,2.67
2023-04-15T03:55:12.390Z,2.63
2023-04-15T03:57:41.168Z,2.92
2023-04-15T04:00:11.794Z,3.35
2023-04-15T04:02:39.054Z,3.92
2023-04-15T04:05:07.415Z,2.38
2023-04-15T04:07:34.037Z,2.53
2023-04-15T04:10:01.892Z,3.15
2023-04-15T04:12:28.477Z,1.77
2023-04-15T04:14:55.080Z,2.40
2023-04-15T04:17:22.993Z,3.33
2023-04-15T04:19:49.644Z,3.53
2023-04-15T04:22:16.284Z,2.92
2023-04-15T04:24:42.930Z,2.90
2023-04-15T04:27:09.646Z,2.97
2023-04-15T04:29:36.243Z,3.25
2023-04-15T04:32:04.145Z,2.95
2023-04-15T04:34:31.167Z,3.30
2023-04-15T04:36:59.286Z,3.67
2023-04-15T04:39:26.034Z,3.50
2023-04-15T04:41:52.657Z,3.22
2023-04-15T04:44:20.512Z,3.35
2023-04-15T04:46:47.140Z,3.30
2023-04-15T04:49:15.094Z,3.78
2023-04-15T04:51:41.920Z,2.67
2023-04-15T04:54:10.661Z,3.60
2023-04-15T04:56:39.259Z,2.63
2023-04-15T04:59:07.120Z,2.67
2023-04-15T05:01:34.237Z,3.78
2023-04-15T05:04:01.653Z,3.35
2023-04-15T05:06:30.613Z,3.53
2023-04-15T05:08:58.083Z,3.13
2023-04-15T05:11:24.719Z,3.30
2023-04-15T05:13:51.349Z,3.38
2023-04-15T05:16:19.889Z,3.00
2023-04-15T05:18:46.559Z,3.55
2023-04-15T05:21:13.559Z,2.38
2023-04-15T05:23:41.017Z,3.33
2023-04-15T05:26:07.925Z,2.83
2023-04-15T05:28:34.667Z,3.45
2023-04-15T05:31:01.536Z,2.50
2023-04-15T05:33:28.246Z,3.58
2023-04-15T05:35:54.892Z,3.00
2023-04-15T05:38:21.532Z,3.00
2023-04-15T05:40:48.313Z,1.98
2023-04-15T05:43:16.220Z,3.25
2023-04-15T05:45:42.820Z,3.42
2023-04-15T05:48:09.478Z,2.05
2023-04-15T05:50:37.377Z,2.72
2023-04-15T05:53:03.979Z,3.17
2023-04-15T05:55:31.664Z,2.85
2023-04-15T05:57:58.244Z,2.83
2023-04-15T06:00:24.873Z,3.05
2023-04-15T06:02:51.627Z,3.80
2023-04-15T06:05:19.673Z,2.70
2023-04-15T06:07:48.728Z,3.03
2023-04-15T06:10:17.181Z,2.83
2023-04-15T06:12:45.288Z,2.90
2023-04-15T06:15:12.024Z,2.80
2023-04-15T06:17:38.789Z,2.28
2023-04-15T06:20:05.908Z,2.33
2023-04-15T06:22:32.530Z,2.42
2023-04-15T06:24:59.238Z,2.65
2023-04-15T06:27:25.990Z,2.25
2023-04-15T06:29:52.617Z,2.58
2023-04-15T06:32:19.235Z,2.78
2023-04-15T06:34:45.847Z,2.75
2023-04-15T06:37:16.255Z,2.85
2023-04-15T06:39:43.692Z,2.80
2023-04-15T06:42:11.467Z,2.95
2023-04-15T06:44:38.257Z,2.63
2023-04-15T06:47:04.970Z,3.08
2023-04-15T06:49:31.870Z,2.13
2023-04-15T06:51:58.563Z,2.75
2023-04-15T06:54:25.165Z,2.30
2023-04-15T06:56:52.448Z,2.60
2023-04-15T06:59:19.091Z,2.72
2023-04-15T07:01:45.850Z,2.78
2023-04-15T07:04:12.895Z,2.10
2023-04-15T07:06:39.985Z,2.40
2023-04-15T07:09:07.147Z,2.63
2023-04-15T07:11:34.941Z,2.95
2023-04-15T07:14:01.631Z,2.83
2023-04-15T07:16:29.886Z,2.33
2023-04-15T07:18:57.185Z,2.13
2023-04-15T07:21:24.913Z,2.55
2023-04-15T07:23:52.013Z,2.22
2023-04-15T07:26:18.730Z,1.95
2023-04-15T07:28:46.498Z,2.42
2023-04-15T07:31:13.814Z,2.38
2023-04-15T07:33:40.686Z,2.60
2023-04-15T07:36:07.388Z,2.70
2023-04-15T07:38:33.997Z,2.40
2023-04-15T07:41:01.988Z,2.08
2023-04-15T07:43:29.782Z,2.28
2023-04-15T07:45:58.063Z,2.60
2023-04-15T07:48:24.709Z,2.47
2023-04-15T07:50:51.353Z,2.42
2023-04-15T07:53:18.025Z,1.98
2023-04-15T07:55:44.615Z,2.30
2023-04-15T07:58:11.753Z,2.35
2023-04-15T08:00:40.086Z,2.50
2023-04-15T08:03:07.819Z,2.40
2023-04-15T08:05:36.222Z,2.58
2023-04-15T08:08:04.632Z,1.70
2023-04-15T08:10:31.552Z,2.40
2023-04-15T08:12:59.717Z,2.58
2023-04-15T08:15:28.064Z,1.70
2023-04-15T08:17:54.758Z,2.08
2023-04-15T08:20:21.541Z,2.30
2023-04-15T08:22:51.981Z,2.28
2023-04-15T08:25:19.959Z,2.63
2023-04-15T08:27:46.654Z,2.40
2023-04-15T08:30:14.057Z,2.42
2023-04-15T08:32:46.997Z,2.38
2023-04-15T08:35:14.130Z,2.38
2023-04-15T08:37:42.281Z,2.05
2023-04-15T08:40:09.950Z,1.75
2023-04-15T08:42:53.754Z,2.42
2023-04-15T08:45:22.320Z,2.10
2023-04-15T08:47:56.430Z,2.80
2023-04-15T08:50:26.027Z,2.35
2023-04-15T08:52:55.849Z,2.58
2023-04-15T08:55:24.580Z,2.70
2023-04-15T08:57:51.451Z,2.33
2023-04-15T09:00:19.006Z,1.83
2023-04-15T09:02:46.959Z,2.40
2023-04-15T09:05:13.922Z,1.90
2023-04-15T09:07:42.851Z,2.13
2023-04-15T09:10:10.438Z,2.78
2023-04-15T09:12:37.706Z,2.55
2023-04-15T09:15:05.865Z,2.30
2023-04-15T09:17:34.051Z,1.90
2023-04-15T09:20:14.878Z,2.08
2023-04-15T09:22:42.683Z,2.58
2023-04-15T09:25:30.088Z,2.45
2023-04-15T09:28:02.927Z,2.65
2023-04-15T09:30:31.193Z,1.98
2023-04-15T09:32:59.761Z,2.33
2023-04-15T09:35:27.743Z,1.80
2023-04-15T09:38:10.826Z,2.08
2023-04-15T09:40:43.352Z,1.70
2023-04-15T09:43:13.656Z,2.08
2023-04-15T09:45:52.742Z,2.67
2023-04-15T09:48:26.806Z,3.03
2023-04-15T09:50:59.485Z,2.28
2023-04-15T09:53:26.588Z,2.38
2023-04-15T09:55:59.773Z,2.33
2023-04-15T09:58:28.743Z,2.65
2023-04-15T10:00:57.695Z,2.05
2023-04-15T10:03:32.364Z,2.05
2023-04-15T10:06:01.402Z,2.20
2023-04-15T10:08:35.068Z,2.42
2023-04-15T10:11:07.639Z,2.07
2023-04-15T10:13:36.496Z,1.95
2023-04-15T10:16:24.390Z,2.15
2023-04-15T10:18:57.046Z,1.92
2023-04-15T10:21:24.348Z,2.50
2023-04-15T10:23:51.609Z,2.75
2023-04-15T10:26:18.737Z,2.45
2023-04-15T10:28:47.422Z,2.22
2023-04-15T10:31:16.199Z,3.67
2023-04-15T10:33:44.515Z,2.30
2023-04-15T10:36:13.242Z,2.15
2023-04-15T10:38:43.918Z,2.35
2023-04-15T10:41:20.735Z,2.00
2023-04-15T10:43:57.547Z,2.10
2023-04-15T10:46:38.698Z,2.20
2023-04-15T10:49:17.850Z,2.60
2023-04-15T10:51:47.087Z,2.17
2023-04-15T10:54:31.105Z,2.00
2023-04-15T10:57:01.492Z,2.47
2023-04-15T10:59:38.479Z,2.05
2023-04-15T11:02:08.493Z,2.15
2023-04-15T11:04:53.831Z,2.47
2023-04-15T11:07:36.980Z,2.30
2023-04-15T11:10:31.422Z,2.15
2023-04-15T11:13:00.515Z,2.30
2023-04-15T11:15:47.536Z,2.10
2023-04-15T11:18:22.138Z,2.08
2023-04-15T11:23:19.966Z,2.10
2023-04-15T11:25:47.545Z,2.53
2023-04-15T11:28:15.813Z,2.15
2023-04-15T11:30:42.952Z,2.15
2023-04-15T11:33:14.467Z,2.28
2023-04-15T11:35:42.435Z,1.73
2023-04-15T11:38:14.756Z,2.00
2023-04-15T11:40:43.857Z,2.00
2023-04-15T11:43:14.893Z,2.25
2023-04-15T11:46:01.930Z,1.95
2023-04-15T11:48:35.931Z,2.33
2023-04-15T11:51:07.250Z,1.92
2023-04-15T11:53:52.570Z,1.77
2023-04-15T11:56:26.235Z,1.92
2023-04-15T11:59:00.948Z,1.60
2023-04-15T12:01:39.790Z,1.35
2023-04-15T12:04:23.498Z,1.65
2023-04-15T12:06:53.697Z,1.90
2023-04-15T12:09:23.040Z,2.20
2023-04-15T12:11:51.756Z,1.70
2023-04-15T12:14:24.235Z,1.85
2023-04-15T12:16:54.199Z,1.63
2023-04-15T12:19:23.552Z,2.08
2023-04-15T12:21:50.944Z,2.00
2023-04-15T12:24:22.909Z,1.90
2023-04-15T12:26:58.006Z,1.95
2023-04-15T12:29:29.292Z,2.17
2023-04-15T12:32:04.945Z,1.80
2023-04-15T12:34:39.424Z,1.88
2023-04-15T12:37:09.602Z,1.67
2023-04-15T12:39:39.599Z,1.75
2023-04-15T12:42:07.944Z,1.80
2023-04-15T12:44:35.796Z,2.40
2023-04-15T12:47:03.232Z,1.73
2023-04-15T12:49:32.202Z,1.95
2023-04-15T12:52:00.756Z,2.38
2023-04-15T12:54:28.720Z,2.22
2023-04-15T12:56:55.732Z,1.92
2023-04-15T12:59:24.148Z,1.60
2023-04-15T13:01:52.536Z,1.77
2023-04-15T13:04:20.712Z,2.03
2023-04-15T13:06:47.978Z,1.50
2023-04-15T13:09:16.467Z,1.73
2023-04-15T13:11:43.081Z,1.52
2023-04-15T13:14:11.837Z,1.70
2023-04-15T13:16:38.737Z,1.65
2023-04-15T13:19:05.577Z,1.48
2023-04-15T13:21:35.793Z,1.77
2023-04-15T13:24:05.196Z,1.95
2023-04-15T13:26:32.205Z,1.80
2023-04-15T13:28:59.052Z,1.77
2023-04-15T13:31:27.595Z,2.10
2023-04-15T13:33:54.444Z,2.13
2023-04-15T13:36:21.188Z,2.08
2023-04-15T13:38:50.426Z,1.85
2023-04-15T13:41:17.958Z,1.60
2023-04-15T13:43:46.012Z,1.40
2023-04-15T13:46:12.903Z,1.80
2023-04-15T13:48:39.724Z,1.88
2023-04-15T13:51:06.438Z,1.98
2023-04-15T13:53:38.010Z,1.77
2023-04-15T13:56:10.535Z,2.00
2023-04-15T13:58:37.953Z,1.92
2023-04-15T14:01:06.330Z,1.88
2023-04-15T14:03:35.140Z,2.08
2023-04-15T14:06:02.419Z,2.00
2023-04-15T14:08:31.091Z,1.77
2023-04-15T14:10:57.904Z,1.60
2023-04-15T14:13:25.906Z,1.70
2023-04-15T14:15:52.689Z,1.75
2023-04-15T14:18:19.341Z,1.58
2023-04-15T14:20:46.063Z,1.80
2023-04-15T14:23:12.747Z,1.75
2023-04-15T14:25:39.512Z,1.58
2023-04-15T14:28:06.361Z,1.55
2023-04-15T14:30:33.361Z,2.00
2023-04-15T14:33:01.383Z,1.70
2023-04-15T14:35:28.477Z,1.85
2023-04-15T14:37:55.750Z,1.40
2023-04-15T14:40:22.707Z,1.40
2023-04-15T14:42:49.402Z,1.30
2023-04-15T14:45:16.563Z,1.70
2023-04-15T14:47:44.769Z,1.80
2023-04-15T14:50:11.536Z,1.50
2023-04-15T14:52:41.322Z,1.73
2023-04-15T14:55:12.261Z,1.65
2023-04-15T14:57:40.460Z,1.67
2023-04-15T15:00:11.878Z,1.38
2023-04-15T15:02:40.499Z,1.48
2023-04-15T15:05:08.910Z,1.52
2023-04-15T15:07:37.282Z,1.95
2023-04-15T15:10:04.517Z,1.45
2023-04-15T15:12:32.517Z,1.95
2023-04-15T15:14:59.158Z,1.50
2023-04-15T15:17:27.186Z,1.55
2023-04-15T15:19:55.345Z,1.60
2023-04-15T15:22:21.960Z,1.52
2023-04-15T15:24:49.927Z,1.73
2023-04-15T15:27:18.058Z,1.65
2023-04-15T15:29:44.743Z,1.63
2023-04-15T15:32:11.498Z,1.73
2023-04-15T15:34:38.232Z,2.15
2023-04-15T15:37:04.917Z,1.50
2023-04-15T15:39:31.628Z,1.33
2023-04-15T15:41:58.265Z,1.63
2023-04-15T15:44:25.017Z,1.48
2023-04-15T15:46:51.736Z,1.65
2023-04-15T15:49:19.749Z,1.98
2023-04-15T15:51:48.200Z,1.65
2023-04-15T15:54:16.078Z,1.80
2023-04-15T15:56:42.695Z,2.50
2023-04-15T15:59:09.327Z,1.35
2023-04-15T16:01:36.057Z,1.70
2023-04-15T16:04:02.895Z,1.40
2023-04-15T16:06:34.910Z,1.52
2023-04-15T16:09:02.281Z,1.48
2023-04-15T16:11:29.520Z,1.42
2023-04-15T16:13:56.400Z,1.70
2023-04-15T16:16:23.659Z,1.75
2023-04-15T16:18:52.255Z,1.48
2023-04-15T16:21:20.316Z,1.65
2023-04-15T16:23:47.329Z,1.85
2023-04-15T16:26:14.069Z,1.85
2023-04-15T16:28:40.822Z,1.80
2023-04-15T16:31:07.530Z,1.85
2023-04-15T16:33:34.257Z,1.85
2023-04-15T16:36:01.171Z,1.98
2023-04-15T16:38:27.941Z,1.90
2023-04-15T16:40:56.234Z,1.90
2023-04-15T16:43:22.864Z,1.65
2023-04-15T16:45:51.578Z,1.48
2023-04-15T16:48:19.690Z,1.85
2023-04-15T16:50:47.151Z,1.70
2023-04-15T16:53:15.853Z,1.92
2023-04-15T16:55:43.640Z,1.95
2023-04-15T16:58:11.374Z,1.80
2023-04-15T17:00:38.352Z,1.48
2023-04-15T17:03:06.140Z,1.85
2023-04-15T17:05:33.100Z,1.80
2023-04-15T17:08:00.673Z,2.30
2023-04-15T17:10:27.969Z,2.10
2023-04-15T17:12:57.143Z,1.52
2023-04-15T17:15:24.577Z,1.50
2023-04-15T17:17:51.316Z,1.60
2023-04-15T17:20:18.092Z,1.63
2023-04-15T17:22:47.180Z,1.70
2023-04-15T17:25:15.922Z,1.95
2023-04-15T17:27:42.597Z,1.67
2023-04-15T17:30:09.937Z,1.80
2023-04-15T17:32:37.280Z,1.90
2023-04-15T17:35:06.499Z,1.83
2023-04-15T17:37:37.630Z,1.98
2023-04-15T17:40:06.742Z,2.17
2023-04-15T17:42:35.160Z,2.00
2023-04-15T17:45:01.783Z,1.65
2023-04-15T17:47:28.491Z,1.38
2023-04-15T17:49:56.350Z,1.88
2023-04-15T17:52:23.060Z,2.05
2023-04-15T17:54:49.740Z,2.58
2023-04-15T17:57:16.757Z,1.40
2023-04-15T17:59:45.040Z,1.80
2023-04-15T18:02:11.936Z,2.03
2023-04-15T18:04:39.285Z,3.60
2023-04-15T18:07:08.059Z,1.67
2023-04-15T18:09:35.144Z,2.10
2023-04-15T18:12:04.488Z,1.98
2023-04-15T18:14:34.144Z,2.20
2023-04-15T18:17:05.043Z,2.00
2023-04-15T18:19:33.235Z,1.60
2023-04-15T18:22:00.461Z,1.65
2023-04-15T18:24:27.899Z,1.73
2023-04-15T18:26:55.929Z,1.30
2023-04-15T18:29:22.543Z,1.70
2023-04-15T18:31:49.259Z,1.92
2023-04-15T18:34:16.150Z,1.80
2023-04-15T18:36:42.999Z,2.33
2023-04-15T18:39:09.721Z,1.98
2023-04-15T18:41:36.648Z,1.90
2023-04-15T18:44:03.315Z,1.95
2023-04-15T18:46:29.946Z,1.90
2023-04-15T18:48:57.791Z,2.47
2023-04-15T18:51:25.697Z,1.95
2023-04-15T18:53:52.354Z,1.30
2023-04-15T18:56:20.432Z,1.90
2023-04-15T18:59:26.001Z,1.90
2023-04-15T19:01:34.164Z,1.73
2023-04-15T19:04:01.709Z,1.85
2023-04-15T19:06:29.473Z,2.28
2023-04-15T19:08:58.489Z,1.83
2023-04-15T19:11:25.993Z,2.42
2023-04-15T19:13:53.183Z,1.65
2023-04-15T19:16:20.051Z,2.13
2023-04-15T19:18:46.775Z,1.80
2023-04-15T19:21:13.489Z,2.00
2023-04-15T19:23:42.861Z,1.85
2023-04-15T19:26:10.030Z,2.60
2023-04-15T19:28:36.825Z,2.13
2023-04-15T19:31:03.625Z,1.85
2023-04-15T19:33:31.627Z,1.73
2023-04-15T19:36:04.101Z,1.85
2023-04-15T19:38:31.415Z,1.67
2023-04-15T19:40:58.913Z,1.70
2023-04-15T19:43:27.138Z,2.22
2023-04-15T19:45:54.789Z,1.50
2023-04-15T19:48:22.851Z,1.80
2023-04-15T19:50:50.749Z,2.10
2023-04-15T19:53:18.903Z,2.40
2023-04-15T19:55:48.189Z,1.65
2023-04-15T19:58:15.013Z,2.85
2023-04-15T20:00:42.196Z,2.47
2023-04-15T20:03:08.990Z,2.22
2023-04-15T20:05:35.877Z,2.67
2023-04-15T20:08:05.035Z,2.00
2023-04-15T20:10:31.993Z,2.75
2023-04-15T20:12:58.767Z,1.88
2023-04-15T20:15:26.086Z,2.20
2023-04-15T20:17:52.881Z,2.50
2023-04-15T20:20:19.879Z,2.58
2023-04-15T20:22:46.603Z,2.90
2023-04-15T20:25:13.333Z,2.17
2023-04-15T20:27:40.043Z,2.63
2023-04-15T20:30:07.427Z,2.72
2023-04-15T20:32:36.667Z,2.00
2023-04-15T20:35:05.010Z,3.08
2023-04-15T20:37:33.649Z,3.05
2023-04-15T20:40:01.204Z,2.70
2023-04-15T20:42:28.138Z,6.35
2023-04-15T20:44:56.082Z,5.20
2023-04-15T20:47:22.847Z,4.43
2023-04-15T20:49:49.645Z,4.38
2023-04-15T20:52:17.674Z,4.65
2023-04-15T20:54:45.509Z,4.00
2023-04-15T20:57:12.118Z,3.38
2023-04-15T20:59:40.196Z,3.20
2023-04-15T21:02:06.933Z,3.60
2023-04-15T21:04:33.685Z,2.72
2023-04-15T21:07:00.983Z,2.42
2023-04-15T21:09:47.843Z,1.73
2023-04-15T21:12:15.818Z,2.03
2023-04-15T21:14:42.425Z,2.75
2023-04-15T21:17:11.191Z,2.28
2023-04-15T21:19:39.610Z,2.60
2023-04-15T21:22:07.421Z,3.28
2023-04-15T21:24:34.389Z,2.90
2023-04-15T21:27:02.048Z,1.95
2023-04-15T21:29:28.851Z,3.22
2023-04-15T21:31:55.566Z,2.42
2023-04-15T21:34:22.244Z,1.45
2023-04-15T21:36:50.312Z,2.50
2023-04-15T21:39:17.271Z,2.55
2023-04-15T21:41:43.972Z,1.63
2023-04-15T21:44:12.581Z,2.53
2023-04-15T21:46:40.671Z,2.70
2023-04-15T21:49:07.531Z,2.58
2023-04-15T21:51:35.567Z,2.63
2023-04-15T21:54:03.409Z,2.42
2023-04-15T21:56:30.057Z,2.38
2023-04-15T21:58:58.731Z,2.33
2023-04-15T22:01:26.605Z,2.42
2023-04-15T22:03:53.607Z,2.65
2023-04-15T22:06:21.478Z,1.88
2023-04-15T22:08:56.938Z,2.63
2023-04-15T22:11:28.644Z,2.53
2023-04-15T22:13:57.294Z,2.00
2023-04-15T22:16:27.112Z,2.45
2023-04-15T22:18:54.761Z,2.60
2023-04-15T22:21:22.950Z,2.80
2023-04-15T22:23:50.042Z,2.53
2023-04-15T22:26:16.734Z,2.50
2023-04-15T22:28:43.503Z,2.70
2023-04-15T22:31:10.534Z,2.10
2023-04-15T22:33:37.433Z,2.70
2023-04-15T22:36:04.056Z,2.33
2023-04-15T22:38:32.371Z,2.17
2023-04-15T22:40:58.984Z,2.70
2023-04-15T22:43:27.412Z,2.67
2023-04-15T22:45:54.975Z,2.10
2023-04-15T22:48:21.961Z,2.35
2023-04-15T22:50:48.921Z,2.97
2023-04-15T22:53:17.422Z,1.63
2023-04-15T22:55:48.257Z,1.98
2023-04-15T22:58:15.767Z,2.63
2023-04-15T23:00:42.583Z,1.98
2023-04-15T23:03:09.472Z,1.75
2023-04-15T23:05:36.519Z,2.63
2023-04-15T23:08:04.586Z,2.50
2023-04-15T23:10:31.806Z,2.35
2023-04-15T23:12:58.538Z,2.85
2023-04-15T23:15:25.355Z,2.90
2023-04-15T23:17:52.120Z,1.90
2023-04-15T23:20:18.766Z,2.10
2023-04-15T23:22:45.413Z,3.17
2023-04-15T23:25:13.201Z,1.33
2023-04-15T23:27:39.789Z,2.17
2023-04-15T23:30:08.666Z,2.53
2023-04-15T23:32:36.789Z,2.08
2023-04-15T23:35:04.684Z,2.13
2023-04-15T23:37:33.130Z,2.60
2023-04-15T23:40:00.949Z,2.47
2023-04-15T23:42:27.546Z,2.20
2023-04-15T23:44:54.306Z,2.03
2023-04-15T23:47:21.483Z,2.75
2023-04-15T23:49:48.223Z,2.30
2023-04-15T23:52:14.964Z,2.63
2023-04-15T23:54:42.928Z,2.45
2023-04-15T23:57:09.530Z,1.95
2023-04-15T23:59:36.268Z,2.15
